Time;durP1;ratioP1;P1;durP2;ratioP2;P2;SDS_P1;SDS_P2;PMS_P1;PMS_P2;Temp;Humidity;BMP_temperature;BMP_pressure;BME280_temperature;BME280_humidity;BME280_pressure;Samples;Min_cycle;Max_cycle;Signal;HPM_P1;HPM_P2
2022/01/26 00:06:40;;;;;;;3.95;2.17;;;;;;;;;;5043213;28;20044;-69
2022/01/26 00:09:06;;;;;;;3.38;1.88;;;;;;;;;;5043482;28;20049;-70
2022/01/26 00:11:32;;;;;;;3.92;1.83;;;;;;;;;;5025332;28;20457;-69
2022/01/26 00:14:00;;;;;;;4.18;1.70;;;;;;;;;;5043382;28;20089;-69
2022/01/26 00:16:28;;;;;;;4.38;1.80;;;;;;;;;;5043328;28;20025;-69
2022/01/26 00:18:58;;;;;;;5.18;2.00;;;;;;;;;;5042838;28;20033;-69
2022/01/26 00:21:32;;;;;;;4.70;2.05;;;;;;;;;;5043172;28;20029;-70
2022/01/26 00:29:15;;;;;;;6.60;1.85;;;;;;;;;;5043069;28;20045;-69
2022/01/26 00:40:12;;;;;;;3.60;1.67;;;;;;;;;;5042911;28;20039;-69
2022/01/26 00:42:40;;;;;;;4.68;1.88;;;;;;;;;;5042678;28;20029;-70
2022/01/26 00:45:07;;;;;;;7.07;1.85;;;;;;;;;;5043049;28;20033;-68
2022/01/26 00:47:32;;;;;;;7.80;1.70;;;;;;;;;;5042846;28;20033;-67
2022/01/26 00:50:03;;;;;;;5.15;1.90;;;;;;;;;;5042557;28;20037;-69
2022/01/26 00:52:40;;;;;;;7.00;1.98;;;;;;;;;;5042861;28;20025;-70
2022/01/26 00:55:08;;;;;;;4.55;2.03;;;;;;;;;;5043004;28;20034;-69
2022/01/26 00:57:33;;;;;;;4.72;1.58;;;;;;;;;;5042316;28;20077;-68
2022/01/26 00:59:59;;;;;;;3.17;1.60;;;;;;;;;;5042769;28;20029;-68
2022/01/26 01:02:26;;;;;;;3.75;1.90;;;;;;;;;;5042569;28;20048;-69
2022/01/26 01:04:52;;;;;;;4.50;2.00;;;;;;;;;;5049438;28;20084;-68
2022/01/26 01:07:21;;;;;;;2.97;1.70;;;;;;;;;;5062542;28;20127;-69
2022/01/26 01:09:47;;;;;;;3.63;1.75;;;;;;;;;;5062220;28;20021;-67
2022/01/26 01:12:12;;;;;;;4.85;1.80;;;;;;;;;;5062279;28;20035;-68
2022/01/26 01:14:40;;;;;;;5.60;1.60;;;;;;;;;;5065917;28;20048;-67
2022/01/26 01:17:09;;;;;;;5.03;1.80;;;;;;;;;;5066462;28;20052;-67
2022/01/26 01:19:48;;;;;;;4.65;2.05;;;;;;;;;;5066287;28;20025;-69
2022/01/26 01:22:37;;;;;;;7.25;2.03;;;;;;;;;;5065405;28;20025;-69
2022/01/26 01:26:06;;;;;;;3.95;1.73;;;;;;;;;;5066787;28;20056;-68
2022/01/26 01:30:48;;;;;;;8.50;1.92;;;;;;;;;;5066586;28;20040;-68
2022/01/26 01:33:19;;;;;;;4.00;1.67;;;;;;;;;;5064865;28;20106;-69
2022/01/26 01:35:46;;;;;;;3.28;1.65;;;;;;;;;;5066322;28;20033;-69
2022/01/26 01:38:16;;;;;;;4.10;1.67;;;;;;;;;;5066129;28;20092;-68
2022/01/26 01:40:43;;;;;;;3.70;2.10;;;;;;;;;;5066375;28;20067;-69
2022/01/26 01:43:09;;;;;;;7.60;2.15;;;;;;;;;;5065730;28;20056;-69
2022/01/26 01:45:42;;;;;;;5.45;2.20;;;;;;;;;;5066017;28;20032;-70
2022/01/26 01:48:08;;;;;;;8.07;1.90;;;;;;;;;;5065878;28;20060;-69
2022/01/26 01:50:41;;;;;;;6.07;2.42;;;;;;;;;;5065665;28;20029;-69
2022/01/26 01:53:07;;;;;;;5.90;1.80;;;;;;;;;;5065986;28;20039;-67
2022/01/26 01:55:32;;;;;;;4.07;2.05;;;;;;;;;;5066005;28;20044;-68
2022/01/26 01:57:59;;;;;;;4.70;1.92;;;;;;;;;;5065966;28;20021;-68
2022/01/26 02:00:27;;;;;;;3.63;1.73;;;;;;;;;;5047455;28;20017;-68
2022/01/26 02:02:52;;;;;;;5.00;2.13;;;;;;;;;;5065588;28;20041;-69
2022/01/26 02:05:18;;;;;;;4.93;2.30;;;;;;;;;;5065531;28;20055;-69
2022/01/26 02:07:43;;;;;;;4.07;1.95;;;;;;;;;;5065335;28;20027;-70
2022/01/26 02:10:10;;;;;;;6.93;2.58;;;;;;;;;;5065884;28;20029;-68
2022/01/26 02:12:39;;;;;;;7.68;2.10;;;;;;;;;;5065574;28;20025;-69
2022/01/26 02:15:12;;;;;;;7.35;1.85;;;;;;;;;;5065574;28;20020;-68
2022/01/26 02:55:38;;;;;;;5.00;1.98;;;;;;;;;;5064984;28;20029;-67
2022/01/26 03:03:18;;;;;;;;;;;;;;;;;;5065102;28;20103;-68
2022/01/26 03:05:53;;;;;;;5.95;2.25;;;;;;;;;;5064414;28;20060;-69
2022/01/26 03:08:28;;;;;;;9.98;2.60;;;;;;;;;;5064628;28;20159;-69
2022/01/26 03:10:56;;;;;;;4.65;2.50;;;;;;;;;;5064720;28;20033;-71
2022/01/26 03:13:27;;;;;;;6.35;2.17;;;;;;;;;;5064526;28;20029;-69
2022/01/26 03:15:58;;;;;;;6.07;2.92;;;;;;;;;;5064343;28;20041;-69
2022/01/26 03:20:51;;;;;;;8.20;2.20;;;;;;;;;;5064157;28;20452;-69
2022/01/26 03:34:12;;;;;;;3.70;1.90;;;;;;;;;;5063875;28;20065;-68
2022/01/26 03:36:48;;;;;;;5.13;2.45;;;;;;;;;;5063386;28;20123;-69
2022/01/26 03:39:16;;;;;;;5.82;2.20;;;;;;;;;;5064255;28;20172;-69
2022/01/26 03:41:48;;;;;;;4.32;2.30;;;;;;;;;;5064186;28;20024;-69
2022/01/26 03:44:14;;;;;;;5.95;1.90;;;;;;;;;;5063999;28;20056;-70
2022/01/26 03:46:41;;;;;;;6.75;2.72;;;;;;;;;;5063759;28;20021;-67
2022/01/26 03:49:08;;;;;;;3.95;2.28;;;;;;;;;;5063931;28;20044;-69
2022/01/26 03:51:34;;;;;;;7.82;2.47;;;;;;;;;;5063878;28;20025;-67
2022/01/26 03:54:00;;;;;;;6.85;2.20;;;;;;;;;;5078889;28;20029;-67
2022/01/26 03:56:26;;;;;;;4.10;1.98;;;;;;;;;;5063710;28;20044;-69
2022/01/26 03:58:51;;;;;;;2.50;1.83;;;;;;;;;;5063624;28;20025;-69
2022/01/26 04:01:16;;;;;;;6.03;2.63;;;;;;;;;;5063846;28;20033;-69
2022/01/26 04:03:42;;;;;;;4.90;2.45;;;;;;;;;;5063372;28;20029;-68
2022/01/26 04:06:07;;;;;;;6.05;2.25;;;;;;;;;;5063597;28;20108;-68
2022/01/26 04:08:34;;;;;;;7.55;2.25;;;;;;;;;;5063579;28;20045;-69
2022/01/26 04:13:25;;;;;;;7.93;2.05;;;;;;;;;;5063502;28;20024;-68
2022/01/26 04:15:51;;;;;;;5.93;2.80;;;;;;;;;;5063289;28;20029;-70
2022/01/26 04:18:22;;;;;;;7.20;2.10;;;;;;;;;;5062170;28;20497;-68
2022/01/26 04:20:51;;;;;;;4.75;2.20;;;;;;;;;;5063487;28;20025;-67
2022/01/26 04:23:47;;;;;;;3.67;2.22;;;;;;;;;;5063193;28;20460;-68
2022/01/26 04:26:02;;;;;;;5.65;1.73;;;;;;;;;;5061778;28;20041;-68
2022/01/26 04:28:39;;;;;;;5.25;1.92;;;;;;;;;;5062739;28;20029;-68
2022/01/26 04:31:04;;;;;;;3.72;1.83;;;;;;;;;;5063068;28;20057;-68
2022/01/26 04:33:32;;;;;;;9.77;1.95;;;;;;;;;;5063099;28;20496;-68
2022/01/26 04:35:58;;;;;;;2.80;1.65;;;;;;;;;;5061757;28;20429;-68
2022/01/26 04:38:36;;;;;;;5.38;1.60;;;;;;;;;;5062663;28;20040;-70
2022/01/26 04:43:32;;;;;;;5.30;2.30;;;;;;;;;;5062918;28;20116;-68
2022/01/26 04:45:57;;;;;;;8.18;2.55;;;;;;;;;;5062826;28;20270;-69
2022/01/26 04:48:25;;;;;;;5.78;2.50;;;;;;;;;;5062664;28;20025;-69
2022/01/26 04:50:51;;;;;;;9.95;3.28;;;;;;;;;;5062891;28;20457;-68
2022/01/26 04:53:17;;;;;;;5.00;2.50;;;;;;;;;;5062635;28;20029;-70
2022/01/26 04:55:42;;;;;;;6.07;3.60;;;;;;;;;;5062918;28;20052;-67
2022/01/26 04:58:08;;;;;;;6.35;2.45;;;;;;;;;;5062397;28;20039;-69
2022/01/26 05:00:34;;;;;;;5.22;2.70;;;;;;;;;;5062661;28;20025;-67
2022/01/26 05:02:59;;;;;;;7.63;2.97;;;;;;;;;;5062416;28;20029;-69
2022/01/26 05:05:25;;;;;;;8.05;2.50;;;;;;;;;;5062171;28;20049;-69
2022/01/26 05:07:50;;;;;;;6.30;2.78;;;;;;;;;;5062129;28;20032;-69
2022/01/26 05:10:16;;;;;;;11.27;4.88;;;;;;;;;;5062487;28;20017;-70
2022/01/26 05:12:41;;;;;;;7.75;3.25;;;;;;;;;;5062322;28;20059;-68
2022/01/26 05:15:07;;;;;;;6.93;3.05;;;;;;;;;;5062326;28;20484;-70
2022/01/26 05:17:32;;;;;;;8.80;3.88;;;;;;;;;;5061096;28;20072;-69
2022/01/26 05:20:00;;;;;;;13.25;4.45;;;;;;;;;;5062822;28;20033;-70
2022/01/26 05:22:25;;;;;;;8.25;3.15;;;;;;;;;;5061964;28;20647;-67
2022/01/26 05:24:52;;;;;;;8.68;3.50;;;;;;;;;;5062253;28;20097;-67
2022/01/26 05:27:18;;;;;;;6.05;3.03;;;;;;;;;;5062459;28;20022;-69
2022/01/26 05:29:44;;;;;;;8.93;4.00;;;;;;;;;;5060956;28;20060;-70
2022/01/26 05:32:09;;;;;;;2.47;1.55;;;;;;;;;;5062478;28;20021;-68
2022/01/26 05:34:37;;;;;;;3.55;2.22;;;;;;;;;;5062397;28;20025;-67
2022/01/26 05:37:02;;;;;;;2.50;1.42;;;;;;;;;;5061679;28;20033;-67
2022/01/26 05:39:28;;;;;;;3.88;2.35;;;;;;;;;;5061981;28;20036;-68
2022/01/26 05:41:53;;;;;;;4.95;1.42;;;;;;;;;;5062389;28;20083;-68
2022/01/26 05:44:19;;;;;;;2.58;1.25;;;;;;;;;;5062114;28;20025;-70
2022/01/26 05:46:48;;;;;;;3.38;2.05;;;;;;;;;;5077688;28;20055;-67
2022/01/26 05:49:16;;;;;;;3.45;2.33;;;;;;;;;;5061774;28;20112;-68
2022/01/26 05:51:45;;;;;;;5.05;2.10;;;;;;;;;;5062346;28;20164;-69
2022/01/26 05:54:11;;;;;;;4.57;2.08;;;;;;;;;;5062346;28;20339;-68
2022/01/26 05:56:36;;;;;;;5.25;2.03;;;;;;;;;;5060723;28;20033;-68
2022/01/26 05:59:02;;;;;;;4.88;2.38;;;;;;;;;;5062780;28;20037;-68
2022/01/26 06:01:27;;;;;;;3.67;2.10;;;;;;;;;;5065924;28;20044;-68
2022/01/26 06:03:53;;;;;;;5.88;2.67;;;;;;;;;;5066016;28;20080;-68
2022/01/26 06:06:20;;;;;;;2.15;1.35;;;;;;;;;;5064541;28;20115;-67
2022/01/26 06:08:45;;;;;;;6.35;3.10;;;;;;;;;;5065314;28;20064;-69
2022/01/26 06:11:11;;;;;;;7.55;2.75;;;;;;;;;;5065956;28;20082;-69
2022/01/26 06:13:36;;;;;;;4.95;2.72;;;;;;;;;;5065807;28;20127;-68
2022/01/26 06:16:02;;;;;;;4.35;2.38;;;;;;;;;;5065639;28;20071;-71
2022/01/26 06:18:27;;;;;;;4.85;2.63;;;;;;;;;;5065219;28;20033;-68
2022/01/26 06:20:52;;;;;;;3.72;2.63;;;;;;;;;;5065875;28;20055;-68
2022/01/26 06:23:19;;;;;;;5.85;2.33;;;;;;;;;;5080589;28;20040;-69
2022/01/26 06:25:45;;;;;;;6.15;2.95;;;;;;;;;;5065543;28;20052;-69
2022/01/26 06:28:13;;;;;;;7.00;3.08;;;;;;;;;;5065322;28;20025;-68
2022/01/26 06:30:44;;;;;;;5.53;3.50;;;;;;;;;;5065163;28;20037;-68
2022/01/26 06:33:09;;;;;;;6.03;2.65;;;;;;;;;;5064967;28;20043;-68
2022/01/26 06:35:35;;;;;;;5.63;3.33;;;;;;;;;;5065004;28;20029;-72
2022/01/26 06:38:01;;;;;;;8.00;3.53;;;;;;;;;;5063167;28;20120;-69
2022/01/26 06:40:26;;;;;;;5.97;3.00;;;;;;;;;;5063896;28;20021;-69
2022/01/26 06:42:56;;;;;;;5.85;3.30;;;;;;;;;;5064833;28;20033;-71
2022/01/26 06:45:28;;;;;;;6.40;3.30;;;;;;;;;;5063851;28;20037;-69
2022/01/26 06:48:37;;;;;;;6.88;2.30;;;;;;;;;;5063928;28;20021;-69
2022/01/26 06:50:58;;;;;;;8.25;3.72;;;;;;;;;;5064549;28;20485;-70
2022/01/26 06:53:23;;;;;;;6.88;3.50;;;;;;;;;;5065121;28;20469;-68
2022/01/26 06:55:49;;;;;;;7.80;3.40;;;;;;;;;;5065163;28;20021;-69
2022/01/26 06:58:14;;;;;;;5.97;3.08;;;;;;;;;;5064840;28;20036;-70
2022/01/26 07:00:40;;;;;;;5.53;2.78;;;;;;;;;;5065053;28;20025;-69
2022/01/26 07:03:05;;;;;;;6.18;3.47;;;;;;;;;;5064875;28;20029;-70
2022/01/26 07:05:31;;;;;;;6.55;3.10;;;;;;;;;;5064435;28;20055;-71
2022/01/26 07:07:56;;;;;;;8.77;3.15;;;;;;;;;;5064703;28;20025;-68
2022/01/26 07:10:22;;;;;;;7.85;3.88;;;;;;;;;;5064710;28;20061;-69
2022/01/26 07:12:47;;;;;;;6.80;3.45;;;;;;;;;;5064698;28;20029;-70
2022/01/26 07:21:22;;;;;;;8.90;3.33;;;;;;;;;;5065120;28;20340;-70
2022/01/26 07:23:37;;;;;;;5.35;2.85;;;;;;;;;;5064110;28;20039;-69
2022/01/26 07:26:03;;;;;;;7.25;2.92;;;;;;;;;;5064588;28;20033;-69
2022/01/26 07:28:34;;;;;;;6.90;3.08;;;;;;;;;;5064378;28;20036;-69
2022/01/26 07:31:00;;;;;;;6.38;2.78;;;;;;;;;;5064331;28;20033;-69
2022/01/26 07:33:25;;;;;;;5.82;2.97;;;;;;;;;;5064261;28;20052;-69
2022/01/26 07:35:50;;;;;;;8.52;3.22;;;;;;;;;;5064296;28;20028;-68
2022/01/26 07:38:16;;;;;;;5.93;3.20;;;;;;;;;;5062730;28;20025;-69
2022/01/26 07:40:42;;;;;;;6.30;2.38;;;;;;;;;;5064327;28;20115;-68
2022/01/26 07:43:07;;;;;;;10.48;2.70;;;;;;;;;;5062784;28;20029;-69
2022/01/26 07:45:33;;;;;;;7.13;3.17;;;;;;;;;;5064360;28;20036;-68
2022/01/26 07:47:58;;;;;;;5.97;2.25;;;;;;;;;;5062713;28;20021;-69
2022/01/26 07:50:23;;;;;;;2.65;1.27;;;;;;;;;;5064226;28;20039;-68
2022/01/26 07:52:49;;;;;;;5.32;2.97;;;;;;;;;;5064011;28;20051;-71
2022/01/26 07:55:18;;;;;;;6.10;2.35;;;;;;;;;;5063903;28;20056;-68
2022/01/26 07:57:44;;;;;;;5.40;2.83;;;;;;;;;;5063575;28;20060;-68
2022/01/26 08:00:11;;;;;;;7.13;2.90;;;;;;;;;;5064039;28;20029;-69
2022/01/26 08:02:37;;;;;;;7.00;2.92;;;;;;;;;;5062404;28;20055;-69
2022/01/26 08:05:02;;;;;;;6.43;2.60;;;;;;;;;;5063836;28;20139;-70
2022/01/26 08:07:28;;;;;;;6.15;2.55;;;;;;;;;;5063629;28;20064;-70
2022/01/26 08:09:54;;;;;;;8.43;2.90;;;;;;;;;;5063640;28;20044;-69
2022/01/26 08:12:21;;;;;;;7.82;2.58;;;;;;;;;;5063432;28;20087;-70
2022/01/26 08:14:46;;;;;;;6.03;2.50;;;;;;;;;;5063613;28;20025;-69
2022/01/26 08:17:14;;;;;;;9.23;3.38;;;;;;;;;;5063389;28;20100;-70
2022/01/26 08:19:40;;;;;;;5.43;2.47;;;;;;;;;;5063409;28;20029;-69
2022/01/26 08:22:05;;;;;;;3.70;1.83;;;;;;;;;;5062807;28;20027;-67
2022/01/26 08:24:31;;;;;;;5.25;2.15;;;;;;;;;;5063267;28;20063;-69
2022/01/26 08:27:01;;;;;;;4.78;2.28;;;;;;;;;;5063125;28;20029;-69
2022/01/26 08:29:31;;;;;;;5.40;2.90;;;;;;;;;;5061591;28;20489;-69
2022/01/26 08:31:58;;;;;;;3.60;1.80;;;;;;;;;;5063269;28;20140;-70
2022/01/26 08:34:24;;;;;;;4.97;2.15;;;;;;;;;;5063372;28;20021;-68
2022/01/26 08:36:49;;;;;;;4.18;2.10;;;;;;;;;;5063340;28;20059;-69
2022/01/26 08:39:15;;;;;;;5.70;2.20;;;;;;;;;;5063094;28;20121;-69
2022/01/26 08:41:42;;;;;;;4.68;1.67;;;;;;;;;;5063170;28;20493;-69
2022/01/26 08:44:07;;;;;;;7.30;2.90;;;;;;;;;;5063072;28;20086;-69
2022/01/26 08:46:33;;;;;;;6.03;2.28;;;;;;;;;;5063310;28;20055;-70
2022/01/26 08:48:58;;;;;;;6.32;2.60;;;;;;;;;;5063078;28;20021;-68
2022/01/26 08:51:23;;;;;;;8.65;2.53;;;;;;;;;;5062982;28;20021;-69
2022/01/26 08:53:49;;;;;;;5.55;2.53;;;;;;;;;;5062847;28;20029;-69
2022/01/26 08:56:16;;;;;;;5.68;2.55;;;;;;;;;;5061785;28;20029;-69
2022/01/26 08:58:42;;;;;;;4.57;2.33;;;;;;;;;;5062875;28;20159;-68
2022/01/26 09:01:07;;;;;;;4.97;2.25;;;;;;;;;;5062807;28;20029;-68
2022/01/26 09:03:38;;;;;;;4.20;2.60;;;;;;;;;;5062809;28;20055;-70
2022/01/26 09:06:04;;;;;;;9.23;2.13;;;;;;;;;;5062728;28;20048;-69
2022/01/26 09:08:29;;;;;;;5.50;2.60;;;;;;;;;;5062855;28;20105;-69
2022/01/26 09:10:59;;;;;;;4.75;2.10;;;;;;;;;;5062831;28;20523;-70
2022/01/26 09:13:25;;;;;;;4.75;2.17;;;;;;;;;;5062686;28;20029;-69
2022/01/26 09:15:52;;;;;;;5.40;2.47;;;;;;;;;;5063041;28;20029;-70
2022/01/26 09:18:30;;;;;;;6.00;1.65;;;;;;;;;;5061449;28;20029;-68
2022/01/26 09:20:55;;;;;;;6.55;1.90;;;;;;;;;;5062791;28;20039;-68
2022/01/26 09:23:23;;;;;;;5.18;2.28;;;;;;;;;;5062656;28;20365;-68
2022/01/26 09:25:48;;;;;;;3.90;1.70;;;;;;;;;;5062893;28;20029;-69
2022/01/26 09:28:13;;;;;;;6.60;2.75;;;;;;;;;;5062357;28;20072;-69
2022/01/26 09:30:39;;;;;;;4.47;2.10;;;;;;;;;;5062912;28;20022;-69
2022/01/26 09:33:04;;;;;;;8.93;2.55;;;;;;;;;;5062671;28;20484;-69
2022/01/26 09:35:30;;;;;;;5.43;1.70;;;;;;;;;;5065996;28;20028;-69
2022/01/26 09:37:55;;;;;;;4.03;1.85;;;;;;;;;;5065022;28;20313;-68
2022/01/26 09:40:21;;;;;;;6.65;2.00;;;;;;;;;;5066378;28;20554;-69
2022/01/26 09:42:46;;;;;;;9.05;2.08;;;;;;;;;;5066206;28;20025;-68
2022/01/26 09:45:12;;;;;;;6.90;1.70;;;;;;;;;;5066599;28;20083;-70
2022/01/26 09:47:38;;;;;;;5.53;2.45;;;;;;;;;;5066099;28;20056;-69
2022/01/26 09:50:05;;;;;;;7.63;0.93;;;;;;;;;;5066593;28;20029;-69
2022/01/26 09:52:37;;;;;;;2.05;1.13;;;;;;;;;;5066426;28;20051;-69
2022/01/26 09:55:05;;;;;;;2.03;1.00;;;;;;;;;;5066099;28;20029;-69
2022/01/26 09:57:31;;;;;;;5.57;1.20;;;;;;;;;;5064651;28;20088;-69
2022/01/26 09:59:58;;;;;;;5.07;2.00;;;;;;;;;;5066111;28;20396;-68
2022/01/26 10:02:29;;;;;;;2.67;1.10;;;;;;;;;;5066141;28;20045;-68
2022/01/26 10:05:05;;;;;;;2.22;0.95;;;;;;;;;;5066006;28;20048;-68
2022/01/26 10:18:03;;;;;;;6.20;1.58;;;;;;;;;;5065523;28;20060;-69
2022/01/26 10:20:43;;;;;;;3.13;1.83;;;;;;;;;;5065953;28;20021;-68
2022/01/26 10:23:16;;;;;;;3.30;1.30;;;;;;;;;;5065585;28;20068;-68
2022/01/26 10:26:06;;;;;;;5.57;2.92;;;;;;;;;;5065444;28;20029;-67
2022/01/26 10:28:43;;;;;;;2.67;1.05;;;;;;;;;;5049599;28;20037;-68
2022/01/26 10:31:19;;;;;;;2.33;1.40;;;;;;;;;;5065850;28;20049;-68
2022/01/26 10:33:55;;;;;;;13.10;1.90;;;;;;;;;;5064137;28;20445;-67
2022/01/26 10:36:21;;;;;;;3.42;1.40;;;;;;;;;;5065318;28;20396;-68
2022/01/26 10:38:58;;;;;;;3.22;2.03;;;;;;;;;;5065118;28;20041;-68
2022/01/26 10:41:23;;;;;;;6.57;2.00;;;;;;;;;;5065579;28;20033;-68
2022/01/26 10:43:50;;;;;;;5.50;1.80;;;;;;;;;;5065276;28;20131;-69
2022/01/26 10:46:37;;;;;;;3.47;1.63;;;;;;;;;;5065003;28;20036;-68
2022/01/26 10:54:37;;;;;;;2.25;1.55;;;;;;;;;;5064659;28;20036;-69
2022/01/26 10:57:11;;;;;;;2.53;1.50;;;;;;;;;;5064150;28;20112;-69
2022/01/26 10:59:40;;;;;;;4.90;1.90;;;;;;;;;;5063698;28;20057;-70
2022/01/26 11:02:07;;;;;;;3.88;1.33;;;;;;;;;;5063441;28;20048;-68
2022/01/26 11:04:39;;;;;;;3.72;1.60;;;;;;;;;;5064471;28;20448;-67
2022/01/26 11:07:09;;;;;;;3.70;1.63;;;;;;;;;;5062936;28;20041;-68
2022/01/26 11:09:37;;;;;;;3.42;1.80;;;;;;;;;;5064860;28;20056;-69
2022/01/26 11:12:07;;;;;;;6.00;1.65;;;;;;;;;;5064707;28;20035;-68
2022/01/26 11:14:38;;;;;;;2.90;1.38;;;;;;;;;;5064607;28;20033;-68
2022/01/26 11:17:04;;;;;;;6.93;1.35;;;;;;;;;;5064295;28;20500;-68
2022/01/26 11:19:40;;;;;;;4.20;1.90;;;;;;;;;;5064300;28;20025;-68
2022/01/26 11:22:07;;;;;;;6.13;2.30;;;;;;;;;;5064668;28;20060;-70
2022/01/26 11:24:45;;;;;;;4.07;1.75;;;;;;;;;;5063057;28;20029;-68
2022/01/26 11:27:11;;;;;;;6.18;2.67;;;;;;;;;;5064414;28;20025;-68
2022/01/26 11:29:41;;;;;;;6.78;1.67;;;;;;;;;;5063196;28;20033;-69
2022/01/26 11:32:34;;;;;;;5.80;1.70;;;;;;;;;;5064329;28;20036;-70
2022/01/26 11:35:03;;;;;;;5.25;1.83;;;;;;;;;;5064228;28;20076;-69
2022/01/26 11:37:45;;;;;;;4.13;1.42;;;;;;;;;;5063945;28;20036;-68
2022/01/26 11:45:35;;;;;;;4.75;1.48;;;;;;;;;;5063939;28;20032;-69
2022/01/26 11:48:11;;;;;;;4.05;1.20;;;;;;;;;;5063961;28;20044;-70
2022/01/26 11:50:42;;;;;;;3.13;1.10;;;;;;;;;;5063910;28;20100;-71
2022/01/26 11:53:10;;;;;;;2.17;0.85;;;;;;;;;;5063842;28;20070;-69
2022/01/26 11:55:48;;;;;;;4.10;1.02;;;;;;;;;;5063779;28;20025;-70
2022/01/26 11:58:44;;;;;;;3.00;0.85;;;;;;;;;;5062787;28;20040;-68
2022/01/26 12:01:30;;;;;;;1.00;0.68;;;;;;;;;;5063873;28;20029;-69
2022/01/26 12:04:08;;;;;;;2.33;0.82;;;;;;;;;;5063690;28;20043;-70
2022/01/26 12:06:40;;;;;;;3.35;1.20;;;;;;;;;;5063394;28;20098;-68
2022/01/26 12:09:07;;;;;;;1.55;0.65;;;;;;;;;;5063585;28;20032;-69
2022/01/26 12:11:34;;;;;;;3.20;0.98;;;;;;;;;;5063609;28;20458;-69
2022/01/26 12:14:05;;;;;;;2.85;1.00;;;;;;;;;;5063426;28;20048;-68
2022/01/26 12:16:37;;;;;;;1.92;0.60;;;;;;;;;;5062917;28;20094;-68
2022/01/26 12:35:14;;;;;;;1.50;0.40;;;;;;;;;;5063225;28;20089;-69
2022/01/26 12:43:15;;;;;;;0.75;0.55;;;;;;;;;;5062716;28;20091;-68
2022/01/26 12:45:40;;;;;;;2.28;1.08;;;;;;;;;;5062564;28;20056;-68
2022/01/26 12:48:09;;;;;;;1.50;1.02;;;;;;;;;;5062628;28;20025;-69
2022/01/26 12:50:38;;;;;;;2.55;0.70;;;;;;;;;;5062905;28;20473;-70
2022/01/26 12:53:04;;;;;;;1.80;0.60;;;;;;;;;;5061817;28;20071;-68
2022/01/26 12:55:32;;;;;;;2.17;0.60;;;;;;;;;;5062914;28;20328;-68
2022/01/26 12:57:58;;;;;;;4.30;0.80;;;;;;;;;;5062926;28;20029;-68
2022/01/26 13:00:25;;;;;;;1.80;0.65;;;;;;;;;;5062646;28;20136;-69
2022/01/26 13:02:52;;;;;;;5.07;0.90;;;;;;;;;;5062307;28;20025;-69
2022/01/26 13:05:26;;;;;;;2.88;0.70;;;;;;;;;;5062731;28;20040;-68
2022/01/26 13:08:05;;;;;;;1.38;0.50;;;;;;;;;;5062537;28;20094;-68
2022/01/26 13:10:31;;;;;;;2.08;0.73;;;;;;;;;;5069824;28;20040;-68
2022/01/26 13:13:08;;;;;;;1.45;0.55;;;;;;;;;;5068990;28;20528;-70
2022/01/26 13:15:42;;;;;;;4.57;0.68;;;;;;;;;;5069096;28;20047;-71
2022/01/26 13:18:18;;;;;;;4.68;0.60;;;;;;;;;;5069293;28;20033;-67
2022/01/26 13:28:36;;;;;;;1.85;0.55;;;;;;;;;;5069228;28;20029;-68
2022/01/26 13:31:44;;;;;;;1.27;0.60;;;;;;;;;;5069446;28;20048;-68
2022/01/26 13:34:36;;;;;;;1.45;0.40;;;;;;;;;;5068245;28;20028;-68
2022/01/26 13:55:36;;;;;;;1.90;0.70;;;;;;;;;;5069329;28;20029;-68
2022/01/26 14:00:55;;;;;;;0.73;0.40;;;;;;;;;;5068965;28;20055;-68
2022/01/26 14:03:23;;;;;;;1.38;0.60;;;;;;;;;;5052162;28;20102;-68
2022/01/26 14:05:49;;;;;;;0.88;0.52;;;;;;;;;;5068458;28;20052;-69
2022/01/26 14:08:14;;;;;;;3.17;0.55;;;;;;;;;;5069155;28;20033;-68
2022/01/26 14:10:43;;;;;;;0.28;0.28;;;;;;;;;;5068901;28;20039;-69
2022/01/26 14:13:09;;;;;;;4.60;0.60;;;;;;;;;;5068969;28;20029;-68
2022/01/26 14:15:46;;;;;;;3.20;0.73;;;;;;;;;;5068973;28;20495;-68
2022/01/26 14:20:54;;;;;;;1.45;0.55;;;;;;;;;;5065639;28;20457;-69
2022/01/26 14:25:52;;;;;;;1.30;0.60;;;;;;;;;;5065502;28;20029;-68
2022/01/26 14:28:20;;;;;;;1.10;0.60;;;;;;;;;;5065509;28;20055;-70
2022/01/26 14:31:07;;;;;;;3.42;0.73;;;;;;;;;;5065503;28;20112;-69
2022/01/26 14:34:33;;;;;;;2.55;0.75;;;;;;;;;;5065252;28;20119;-68
2022/01/26 15:51:09;;;;;;;4.45;1.35;;;;;;;;;;5062672;28;20033;-70
2022/01/26 16:39:26;;;;;;;3.42;1.17;;;;;;;;;;5063752;28;20044;-69
2022/01/26 18:49:34;;;;;;;10.82;1.80;;;;;;;;;;5065034;28;19909;-67
2022/01/26 18:52:01;;;;;;;8.27;1.60;;;;;;;;;;5065238;28;20032;-68
2022/01/26 18:54:32;;;;;;;12.73;1.77;;;;;;;;;;5064748;28;20079;-68
2022/01/26 18:57:00;;;;;;;14.18;1.85;;;;;;;;;;5064809;28;20025;-68
2022/01/26 18:59:26;;;;;;;11.18;1.80;;;;;;;;;;5064858;28;20381;-68
2022/01/26 19:01:53;;;;;;;12.98;2.30;;;;;;;;;;5065023;28;20025;-69
2022/01/26 19:04:33;;;;;;;9.00;1.65;;;;;;;;;;5064940;28;20033;-67
2022/01/26 19:06:59;;;;;;;14.73;2.13;;;;;;;;;;5046491;28;20037;-70
2022/01/26 19:09:28;;;;;;;13.57;1.48;;;;;;;;;;5064436;28;20420;-69
2022/01/26 19:11:55;;;;;;;11.57;1.88;;;;;;;;;;5044693;28;20033;-68
2022/01/26 19:14:33;;;;;;;14.57;1.70;;;;;;;;;;5062760;28;20028;-70
2022/01/26 19:17:05;;;;;;;14.27;1.45;;;;;;;;;;5062299;28;20028;-70
2022/01/26 19:22:45;;;;;;;12.90;2.38;;;;;;;;;;5062620;28;20028;-69
2022/01/26 19:28:03;;;;;;;9.50;1.90;;;;;;;;;;5064133;28;20112;-67
2022/01/26 19:31:45;;;;;;;6.65;1.10;;;;;;;;;;5045257;28;20028;-68
2022/01/26 19:44:29;;;;;;;9.30;2.00;;;;;;;;;;5063129;28;20097;-68
2022/01/26 19:52:13;;;;;;;10.02;1.75;;;;;;;;;;5064069;28;20040;-69
2022/01/26 19:54:42;;;;;;;10.45;1.60;;;;;;;;;;5063566;28;20029;-67
2022/01/26 19:57:08;;;;;;;13.70;2.05;;;;;;;;;;5063123;28;20029;-67
2022/01/26 19:59:35;;;;;;;4.85;1.30;;;;;;;;;;5063199;28;20044;-67
2022/01/26 20:02:00;;;;;;;10.15;1.73;;;;;;;;;;5063416;28;20036;-67
2022/01/26 20:04:28;;;;;;;8.05;1.40;;;;;;;;;;5063386;28;20025;-67
2022/01/26 20:06:54;;;;;;;17.17;1.58;;;;;;;;;;5063439;28;20119;-67
2022/01/26 20:09:27;;;;;;;5.78;1.00;;;;;;;;;;5063412;28;20029;-69
2022/01/26 20:12:00;;;;;;;10.15;1.77;;;;;;;;;;5045516;28;20105;-68
2022/01/26 20:14:32;;;;;;;6.97;1.27;;;;;;;;;;5063436;28;20119;-68
2022/01/26 20:17:06;;;;;;;5.68;1.10;;;;;;;;;;5063427;28;20037;-68
2022/01/26 20:19:37;;;;;;;6.53;1.17;;;;;;;;;;5063161;28;20032;-65
2022/01/26 20:22:06;;;;;;;9.32;1.27;;;;;;;;;;5063179;28;20041;-68
2022/01/26 20:24:32;;;;;;;6.63;1.63;;;;;;;;;;5063275;28;20092;-67
2022/01/26 20:26:58;;;;;;;19.00;2.33;;;;;;;;;;5063295;28;20043;-68
2022/01/26 20:29:29;;;;;;;13.43;2.03;;;;;;;;;;5063351;28;20060;-67
2022/01/26 20:32:05;;;;;;;8.65;1.10;;;;;;;;;;5063283;28;20032;-67
2022/01/26 20:34:33;;;;;;;8.52;1.73;;;;;;;;;;5062784;28;20033;-66
2022/01/26 20:36:59;;;;;;;12.13;2.22;;;;;;;;;;5045769;28;20497;-67
2022/01/26 20:39:24;;;;;;;8.15;1.38;;;;;;;;;;5062152;28;20036;-68
2022/01/26 20:41:51;;;;;;;9.30;1.83;;;;;;;;;;5062410;28;20044;-68
2022/01/26 20:44:18;;;;;;;14.55;1.98;;;;;;;;;;5062620;28;20080;-68
2022/01/26 20:46:45;;;;;;;16.77;2.67;;;;;;;;;;5062414;28;20032;-68
2022/01/26 20:49:10;;;;;;;9.27;1.63;;;;;;;;;;5063466;28;20029;-67
2022/01/26 20:51:36;;;;;;;9.18;2.00;;;;;;;;;;5063504;28;20386;-67
2022/01/26 20:54:03;;;;;;;14.93;2.60;;;;;;;;;;5063613;28;20029;-68
2022/01/26 20:56:29;;;;;;;7.53;1.25;;;;;;;;;;5063143;28;20063;-68
2022/01/26 20:58:54;;;;;;;12.85;1.60;;;;;;;;;;5063549;28;20029;-67
2022/01/26 21:01:19;;;;;;;8.63;1.48;;;;;;;;;;5063297;28;20025;-68
2022/01/26 21:03:45;;;;;;;15.25;1.90;;;;;;;;;;5063014;28;20036;-66
2022/01/26 21:06:10;;;;;;;14.32;2.47;;;;;;;;;;5057588;28;20129;-68
2022/01/26 21:08:38;;;;;;;7.05;1.73;;;;;;;;;;5062135;28;20492;-66
2022/01/26 21:11:04;;;;;;;8.70;1.48;;;;;;;;;;5083118;28;20029;-68
2022/01/26 21:13:32;;;;;;;15.50;2.35;;;;;;;;;;5083198;28;20051;-68
2022/01/26 21:15:57;;;;;;;8.77;1.70;;;;;;;;;;5082988;28;20036;-69
2022/01/26 21:18:23;;;;;;;14.10;1.98;;;;;;;;;;5083012;28;20063;-67
2022/01/26 21:20:48;;;;;;;16.55;2.17;;;;;;;;;;5083549;28;20080;-69
2022/01/26 21:23:14;;;;;;;12.15;1.70;;;;;;;;;;5083501;28;20078;-67
2022/01/26 21:25:39;;;;;;;15.90;2.30;;;;;;;;;;5083195;28;20508;-68
2022/01/26 21:28:06;;;;;;;18.67;2.80;;;;;;;;;;5082820;28;20054;-68
2022/01/26 21:30:31;;;;;;;12.35;2.33;;;;;;;;;;5086408;28;20084;-69
2022/01/26 21:32:57;;;;;;;14.52;2.97;;;;;;;;;;5086397;28;20028;-68
2022/01/26 21:35:23;;;;;;;16.80;3.90;;;;;;;;;;5086519;28;20270;-69
2022/01/26 21:37:49;;;;;;;13.95;2.20;;;;;;;;;;5086307;28;20162;-68
2022/01/26 21:40:16;;;;;;;12.70;2.50;;;;;;;;;;5086919;28;20028;-69
2022/01/26 21:42:41;;;;;;;12.35;2.88;;;;;;;;;;5086435;28;20055;-70
2022/01/26 21:45:07;;;;;;;18.00;2.35;;;;;;;;;;5086667;28;20035;-68
2022/01/26 21:47:33;;;;;;;10.32;2.78;;;;;;;;;;5085946;28;20029;-68
2022/01/26 21:49:59;;;;;;;11.90;2.47;;;;;;;;;;5086382;28;20079;-68
2022/01/26 21:52:25;;;;;;;13.75;2.45;;;;;;;;;;5086328;28;20520;-69
2022/01/26 21:54:51;;;;;;;17.17;3.05;;;;;;;;;;5086025;28;20021;-68
2022/01/26 21:57:17;;;;;;;15.35;1.45;;;;;;;;;;5086558;28;20127;-68
2022/01/26 21:59:43;;;;;;;11.15;2.08;;;;;;;;;;5086621;28;20031;-70
2022/01/26 22:02:10;;;;;;;13.18;2.00;;;;;;;;;;5085901;28;20033;-69
2022/01/26 22:04:35;;;;;;;13.15;1.83;;;;;;;;;;5085555;28;20035;-67
2022/01/26 22:07:01;;;;;;;9.95;2.13;;;;;;;;;;5085398;28;20059;-69